• Join FlightAware (Why Join?)
  • Login
  • US Flag 
06:22AM EDT


 

Airport Tracker/Info


-or-


 

Live Flight TrackerFlight Track Log ✈ SWA2068 ✈ 10-Aug-2013 ✈ KBWI - KALB

Flight Track Log - Related Links

Times and Time Zones

All times are in EDT time to prevent confusion due to time zone crossing. See the SWA2068 flight status page for this flight to view local times or setup timezone preferences in your user account.

Time Position Orientation Groundspeed Altitude Reporting Facility
EDT Latitude Longitude Course Direction KTS MPH feet Rate Location/Type
09:54AM 39.1667 -76.7167 129° Southeast 174 200 2,100  Level Potomac TRACON
09:55AM 39.1336 -76.6647 129° Southeast 131 151 6,000 2,220 Climbing Washington Center
09:56AM 39.1406 -76.5792 84° East 181 208 8,400 3,000 Climbing Washington Center
09:57AM 39.1439 -76.4292 88° East 271 312 12,200 3,240 Climbing Washington Center
09:58AM 39.1469 -76.2875 88° East 317 365 15,000 2,820 Climbing Washington Center
09:59AM 39.1603 -76.1350 84° East 389 448 17,700 2,820 Climbing Washington Center
10:00AM 39.1817 -75.9772 80° East 424 488 20,600 2,760 Climbing Washington Center
10:01AM 39.2258 -75.8328 68° East 430 495 23,400 2,100 Climbing Washington Center
10:02AM 39.3197 -75.7150 44° Northeast 430 495 24,800 1,620 Climbing Washington Center
10:03AM 39.4156 -75.5917 45° Northeast 460 529 26,700 1,980 Climbing Washington Center
10:04AM 39.5114 -75.4678 45° Northeast 472 543 28,900 1,140 Climbing Washington Center
10:05AM 39.6028 -75.3492 45° Northeast 472 543 29,000  Climbing Washington Center
10:06AM 39.6964 -75.2219 46° Northeast 467 537 29,000  Level Washington Center
10:08AM 39.8172 -75.0439 49° Northeast 491 565 29,000  Level New York Center
10:09AM 39.9197 -74.9175 43° Northeast 497 572 29,000  Level New York Center
10:10AM 40.0153 -74.8067 42° Northeast 510 587 29,000  Level New York Center
10:11AM 40.1325 -74.6667 42° Northeast 510 587 29,000  Level New York Center
10:12AM 40.2258 -74.5525 43° Northeast 510 587 29,000  Level New York Center
10:13AM 40.3431 -74.4089 43° Northeast 515 593 29,000  Level New York Center
10:14AM 40.4492 -74.2783 43° Northeast 515 593 29,000  Level New York Center
10:15AM 40.5356 -74.1736 43° Northeast 510 587 29,000 -1,380 Level New York Center
10:17AM 40.7464 -73.9194 42° Northeast 519 597 25,000 -1,740 Descending Boston Center
10:18AM 40.8458 -73.7981 43° Northeast 498 573 23,900 -540 Descending Boston Center
10:19AM 40.9431 -73.6819 42° Northeast 478 550 24,000 -360 Climbing Boston Center
10:20AM 41.0625 -73.6239 20° North 456 525 23,200 -600 Descending Boston Center
10:21AM 41.1897 -73.6150 North 439 505 22,800 -780 Descending Boston Center
10:22AM 41.3169 -73.6036 North 445 512 21,700 -1,440 Descending Boston Center
10:23AM 41.4400 -73.5892 North 445 512 20,000 -2,400 Descending Boston Center
10:24AM 41.5672 -73.5806 North 433 498 16,900 -2,820 Descending Boston Center
10:25AM 41.6800 -73.5686 North 415 478 14,500 -2,700 Descending Boston Center
10:26AM 41.7864 -73.5567 North 398 458 11,700 -1,740 Descending Boston Center
10:27AM 41.8906 -73.5500 North 378 435 11,000 -360 Descending Boston Center
10:28AM 41.9928 -73.5378 North 373 429 11,000  Level Boston Center
10:28AM 42.0764 -73.5308 North 374 430 11,000  Level Boston Center
10:30AM 42.1889 -73.5161 North 368 423 11,000 -120 Level Boston Center
10:30AM 42.2808 -73.5036 North 368 423 10,800 -600 Descending Boston Center
10:32AM 42.3825 -73.5475 342° North 285 328 9,900 -1,020 Descending Boston Center
10:33AM 42.4531 -73.5769 343° North 282 325 8,600 -1,440 Descending Boston Center
10:34AM 42.5133 -73.6033 342° North 260 299 7,100 -1,500 Descending Boston Center
10:35AM 42.5858 -73.6386 340° North 255 293 5,700 -1,440 Descending Boston Center
10:36AM 42.6378 -73.6594 344° North 229 264 4,300 -1,380 Descending Boston Center
10:37AM 42.6981 -73.6775 348° North 210 242 3,000 -1,140 Descending Boston Center
10:38AM 42.7542 -73.6900 351° North 155 178 1,900 -840 Descending Boston Center
10:39AM 42.7600 -73.7239 283° West 110 127 1,400 -780 Descending Boston Center
10:40AM 42.7489 -73.7831 256° West 120 138 400 -60 Descending Boston Center
10:41AM 42.7517 -73.7125 87° East 78 90 1,300 420 Climbing Boston Center
10:42AM 42.7350 -73.7122 179° South 84 97 1,200 -120 Descending Boston Center